AYNZ/LAE METAR and TAF weather

Enter ICAO airport designator
Station Type Date Time Source
AYNZ METAR 2021/05/15 00:00 UTC NOAA

AYNZ 150000Z VRB03KT 9999 SCT025 SKC 29/22 Q1009=


Station Type Date Time Source
AYNZ Decoded METAR 2021/05/15 00:00 UTC NOAA

Station name not available
May 14, 2021 - 08:00 PM EDT / 2021.05.15 0000 UTC
Wind: Variable at 3 MPH (3 KT):0
Visibility: greater than 7 mile(s):0
Sky conditions: partly cloudy
Temperature: 84 F (29 C)
Dew Point: 71 F (22 C)
Relative Humidity: 65%
Pressure (altimeter): 29.80 in. Hg (1009 hPa)
ob: AYNZ 150000Z VRB03KT 9999 SCT025 SKC 29/22 Q1009=
cycle: 0

Station Type Date Time Source
AYNZ TAF 2015/08/19 08:15 UTC NOAA

TAF AYNZ 190550Z 1908/1920 09015KT 9999 SCT020 SCT120
FM191400 VRB03KT 9999 BKN040 Q 1011 1014 1013 1010

Example: see airport list